createdAt,value
2022-12-31T00:00:49.228Z,6.31
2022-12-31T00:03:32.366Z,6.28
2022-12-31T00:06:13.533Z,6.26
2022-12-31T00:08:46.675Z,6.20
2022-12-31T00:11:19.051Z,6.19
2022-12-31T00:13:52.051Z,6.14
2022-12-31T00:16:27.321Z,6.11
2022-12-31T00:19:01.324Z,6.05
2022-12-31T00:21:35.328Z,6.01
2022-12-31T00:24:09.019Z,5.96
2022-12-31T00:26:41.748Z,5.92
2022-12-31T00:29:13.957Z,5.89
2022-12-31T00:31:46.276Z,5.86
2022-12-31T00:34:18.593Z,5.86
2022-12-31T00:36:50.851Z,5.84
2022-12-31T00:39:23.049Z,5.85
2022-12-31T00:41:55.278Z,5.84
2022-12-31T00:44:27.451Z,5.83
2022-12-31T00:46:59.793Z,5.82
2022-12-31T00:49:32.455Z,5.83
2022-12-31T00:52:04.826Z,5.82
2022-12-31T00:54:37.087Z,5.80
2022-12-31T00:57:09.272Z,5.77
2022-12-31T00:59:41.490Z,5.75
2022-12-31T01:02:13.832Z,5.72
2022-12-31T01:04:46.384Z,5.73
2022-12-31T01:07:18.575Z,5.71
2022-12-31T01:09:50.823Z,5.68
2022-12-31T01:12:22.994Z,5.64
2022-12-31T01:14:55.166Z,5.63
2022-12-31T01:17:27.451Z,5.65
2022-12-31T01:19:59.617Z,5.67
2022-12-31T01:22:31.969Z,5.66
2022-12-31T01:25:04.262Z,5.63
2022-12-31T01:27:36.486Z,5.58
2022-12-31T01:30:11.289Z,5.59
2022-12-31T01:32:43.519Z,5.63
2022-12-31T01:35:15.686Z,5.68
2022-12-31T01:37:48.119Z,5.70
2022-12-31T01:40:20.569Z,5.71
2022-12-31T01:42:58.793Z,5.73
2022-12-31T01:45:31.142Z,5.78
2022-12-31T01:48:03.349Z,5.81
2022-12-31T01:50:38.523Z,5.80
2022-12-31T01:53:12.201Z,5.77
2022-12-31T01:55:48.650Z,5.79
2022-12-31T01:58:26.227Z,5.79
2022-12-31T02:01:00.938Z,5.79
2022-12-31T02:03:33.673Z,5.79
2022-12-31T02:06:10.433Z,5.79
2022-12-31T02:08:42.709Z,5.78
2022-12-31T02:11:30.437Z,5.81
2022-12-31T02:14:06.071Z,5.82
2022-12-31T02:16:45.635Z,5.85
2022-12-31T02:19:50.545Z,5.84
2022-12-31T02:22:34.967Z,5.85
2022-12-31T02:25:32.857Z,5.85
2022-12-31T02:28:20.813Z,5.83
2022-12-31T02:30:57.403Z,5.75
2022-12-31T02:33:33.926Z,5.66
2022-12-31T02:36:11.635Z,5.59
2022-12-31T02:38:47.525Z,5.51
2022-12-31T02:41:33.063Z,5.48
2022-12-31T02:44:22.128Z,5.45
2022-12-31T02:47:02.156Z,5.43
2022-12-31T02:49:41.007Z,5.38
2022-12-31T02:52:22.698Z,5.32
2022-12-31T02:55:04.201Z,5.28
2022-12-31T02:57:43.942Z,5.25
2022-12-31T03:00:35.093Z,5.23
2022-12-31T03:03:09.657Z,5.22
2022-12-31T03:05:44.763Z,5.21
2022-12-31T03:08:24.445Z,5.18
2022-12-31T03:10:58.006Z,5.16
2022-12-31T03:13:30.309Z,5.16
2022-12-31T03:16:02.533Z,5.15
2022-12-31T03:18:58.159Z,5.15
2022-12-31T03:21:47.839Z,5.18
2022-12-31T03:24:37.502Z,5.24
2022-12-31T03:27:09.831Z,5.28
2022-12-31T03:29:42.101Z,5.33
2022-12-31T03:32:14.370Z,5.36
2022-12-31T03:34:46.562Z,5.36
2022-12-31T03:37:19.890Z,5.30
2022-12-31T03:39:52.108Z,5.18
2022-12-31T03:42:24.292Z,5.07
2022-12-31T03:44:56.491Z,5.01
2022-12-31T03:47:28.957Z,5.04
2022-12-31T03:50:01.289Z,5.04
2022-12-31T03:52:33.528Z,5.02
2022-12-31T03:55:06.148Z,5.07
2022-12-31T03:57:38.400Z,5.08
2022-12-31T04:00:13.944Z,5.07
2022-12-31T04:02:46.441Z,5.07
2022-12-31T04:05:20.141Z,5.07
2022-12-31T04:07:53.360Z,5.04
2022-12-31T04:10:25.606Z,4.99
2022-12-31T04:13:00.372Z,4.96
2022-12-31T04:15:32.650Z,4.95
2022-12-31T04:18:05.026Z,4.93
2022-12-31T04:20:37.304Z,4.85
2022-12-31T04:23:09.701Z,4.86
2022-12-31T04:25:41.865Z,4.83
2022-12-31T04:28:14.145Z,4.83
2022-12-31T04:30:46.350Z,4.85
2022-12-31T04:33:18.578Z,4.85
2022-12-31T04:35:51.420Z,4.85
2022-12-31T04:38:23.590Z,4.86
2022-12-31T04:41:13.194Z,4.85
2022-12-31T04:43:47.258Z,4.84
2022-12-31T04:46:21.520Z,4.83
2022-12-31T04:48:53.916Z,4.83
2022-12-31T04:51:27.648Z,4.82
2022-12-31T04:54:00.740Z,4.83
2022-12-31T04:56:33.180Z,4.85
2022-12-31T04:59:05.376Z,4.84
2022-12-31T05:01:38.838Z,4.84
2022-12-31T05:04:11.276Z,4.85
2022-12-31T05:06:43.465Z,4.83
2022-12-31T05:09:15.985Z,4.77
2022-12-31T05:11:48.179Z,4.80
2022-12-31T05:14:20.622Z,4.80
2022-12-31T05:16:52.875Z,4.80
2022-12-31T05:19:25.082Z,4.80
2022-12-31T05:22:14.644Z,4.82
2022-12-31T05:24:46.835Z,4.82
2022-12-31T05:27:19.059Z,4.82
2022-12-31T05:29:51.557Z,4.81
2022-12-31T05:32:23.720Z,4.80
2022-12-31T05:34:56.051Z,4.78
2022-12-31T05:37:28.851Z,4.79
2022-12-31T05:40:01.247Z,4.77
2022-12-31T05:42:33.467Z,4.74
2022-12-31T05:45:06.488Z,4.71
2022-12-31T05:47:38.684Z,4.68
2022-12-31T05:50:13.279Z,4.66
2022-12-31T05:52:47.807Z,4.63
2022-12-31T05:55:20.486Z,4.60
2022-12-31T05:57:52.935Z,4.58
2022-12-31T06:00:25.337Z,4.56
2022-12-31T06:02:57.605Z,4.56
2022-12-31T06:05:29.951Z,4.57
2022-12-31T06:08:02.183Z,4.54
2022-12-31T06:10:34.426Z,4.58
2022-12-31T06:13:07.085Z,4.61
2022-12-31T06:15:41.573Z,4.56
2022-12-31T06:18:13.981Z,4.56
2022-12-31T06:20:46.164Z,4.54
2022-12-31T06:23:18.341Z,4.50
2022-12-31T06:25:50.532Z,4.56
2022-12-31T06:28:22.919Z,4.57
2022-12-31T06:31:02.081Z,4.60
2022-12-31T06:33:35.262Z,4.59
2022-12-31T06:36:10.175Z,4.65
2022-12-31T06:38:43.926Z,4.67
2022-12-31T06:41:18.428Z,4.71
2022-12-31T06:43:51.169Z,4.75
2022-12-31T06:46:23.535Z,4.77
2022-12-31T06:48:55.879Z,4.80
2022-12-31T06:51:28.075Z,4.84
2022-12-31T06:54:00.313Z,4.89
2022-12-31T06:56:35.005Z,4.91
2022-12-31T06:59:15.739Z,4.95
2022-12-31T07:01:59.724Z,4.95
2022-12-31T07:05:08.350Z,4.98
2022-12-31T07:07:51.268Z,5.00
2022-12-31T07:10:34.617Z,5.01
2022-12-31T07:13:21.884Z,5.03
2022-12-31T07:16:12.164Z,5.04
2022-12-31T07:18:52.593Z,5.08
2022-12-31T07:21:33.246Z,5.14
2022-12-31T07:24:07.144Z,5.18
2022-12-31T07:27:01.754Z,5.31
2022-12-31T07:29:44.717Z,5.43
2022-12-31T07:32:30.510Z,5.57
2022-12-31T07:35:11.073Z,5.72
2022-12-31T07:37:52.900Z,5.88
2022-12-31T07:40:35.550Z,6.04
2022-12-31T07:43:15.587Z,6.23
2022-12-31T07:45:53.067Z,6.44
2022-12-31T07:48:30.046Z,6.64
2022-12-31T07:51:03.248Z,6.84
2022-12-31T07:53:36.567Z,7.02
2022-12-31T07:56:11.098Z,7.16
2022-12-31T07:59:00.020Z,7.29
2022-12-31T08:01:43.255Z,7.44
2022-12-31T08:04:27.388Z,7.61
2022-12-31T08:07:12.657Z,7.74
2022-12-31T08:09:58.334Z,7.79
2022-12-31T08:12:35.326Z,7.76
2022-12-31T08:15:16.310Z,7.74
2022-12-31T08:17:49.415Z,7.76
2022-12-31T08:20:22.598Z,7.80
2022-12-31T08:23:22.913Z,7.80
2022-12-31T08:26:15.164Z,7.86
2022-12-31T08:29:07.219Z,8.07
2022-12-31T08:31:51.368Z,8.19
2022-12-31T08:34:32.209Z,8.41
2022-12-31T08:37:10.102Z,8.58
2022-12-31T08:39:56.440Z,8.67
2022-12-31T08:42:37.474Z,8.80
2022-12-31T08:45:17.326Z,9.01
2022-12-31T08:48:00.344Z,9.27
2022-12-31T08:50:34.231Z,9.49
2022-12-31T08:53:07.797Z,9.57
2022-12-31T08:55:41.692Z,9.69
2022-12-31T08:58:28.511Z,9.84
2022-12-31T09:01:02.546Z,9.98
2022-12-31T09:03:58.263Z,10.11
2022-12-31T09:06:36.143Z,10.28
2022-12-31T09:09:16.588Z,10.39
2022-12-31T09:11:56.264Z,10.47
2022-12-31T09:14:47.094Z,10.56
2022-12-31T09:17:37.860Z,10.64
2022-12-31T09:20:20.742Z,10.72
2022-12-31T09:22:54.366Z,10.88
2022-12-31T09:25:28.989Z,11.03
2022-12-31T09:28:12.789Z,11.08
2022-12-31T09:30:55.264Z,11.20
2022-12-31T09:33:41.719Z,11.42
2022-12-31T09:36:19.641Z,11.62
2022-12-31T09:39:00.500Z,11.80
2022-12-31T09:42:00.558Z,11.89
2022-12-31T09:45:11.257Z,11.71
2022-12-31T09:48:18.373Z,11.66
2022-12-31T09:51:08.565Z,11.70
2022-12-31T09:53:52.531Z,11.76
2022-12-31T09:56:30.899Z,11.75
2022-12-31T09:59:07.422Z,11.81
2022-12-31T10:01:47.724Z,11.95
2022-12-31T10:04:57.527Z,12.04
2022-12-31T10:07:51.979Z,12.21
2022-12-31T10:10:31.730Z,12.22
2022-12-31T10:13:23.268Z,12.02
2022-12-31T10:16:26.148Z,11.91
2022-12-31T10:19:29.609Z,11.86
2022-12-31T10:22:15.655Z,11.96
2022-12-31T10:25:11.044Z,11.99
2022-12-31T10:27:54.202Z,12.04
2022-12-31T10:30:32.601Z,12.17
2022-12-31T10:33:18.236Z,12.28
2022-12-31T10:35:55.479Z,12.34
2022-12-31T10:38:35.414Z,12.39
2022-12-31T10:41:39.402Z,12.46
2022-12-31T10:44:58.528Z,12.29
2022-12-31T10:51:22.471Z,12.20
2022-12-31T10:54:29.253Z,12.27
2022-12-31T10:57:37.706Z,12.35
2022-12-31T11:00:19.998Z,12.38
2022-12-31T11:03:41.035Z,12.41
2022-12-31T11:07:03.841Z,12.52
2022-12-31T11:10:06.550Z,12.58
2022-12-31T11:13:12.103Z,12.63
2022-12-31T11:16:04.416Z,12.72
2022-12-31T11:18:49.232Z,12.79
2022-12-31T11:21:34.210Z,12.82
2022-12-31T11:24:20.336Z,12.87
2022-12-31T11:27:11.472Z,12.84
2022-12-31T11:29:58.282Z,12.81
2022-12-31T11:32:44.663Z,12.83
2022-12-31T11:35:19.756Z,12.88
2022-12-31T11:37:55.790Z,12.79
2022-12-31T11:40:42.119Z,12.81
2022-12-31T11:43:20.033Z,12.79
2022-12-31T11:46:20.365Z,12.80
2022-12-31T11:49:09.574Z,12.77
2022-12-31T11:51:59.723Z,12.77
2022-12-31T11:54:54.388Z,12.77
2022-12-31T11:57:33.288Z,12.75
2022-12-31T12:00:14.436Z,12.69
2022-12-31T12:02:50.235Z,12.66
2022-12-31T12:05:24.640Z,12.63
2022-12-31T12:07:57.697Z,12.62
2022-12-31T12:10:36.603Z,12.62
2022-12-31T12:13:20.974Z,12.60
2022-12-31T12:15:56.549Z,12.56
2022-12-31T12:18:34.755Z,12.50
2022-12-31T12:21:11.703Z,12.49
2022-12-31T12:23:54.753Z,12.51
2022-12-31T12:26:38.695Z,12.56
2022-12-31T12:29:18.175Z,12.59
2022-12-31T12:32:00.170Z,12.62
2022-12-31T12:34:34.065Z,12.66
2022-12-31T12:37:09.285Z,12.65
2022-12-31T12:39:41.592Z,12.64
2022-12-31T12:42:16.088Z,12.64
2022-12-31T12:44:48.303Z,12.61
2022-12-31T12:47:21.473Z,12.58
2022-12-31T12:49:56.777Z,12.56
2022-12-31T12:52:46.375Z,12.53
2022-12-31T12:55:27.396Z,12.50
2022-12-31T12:58:08.304Z,12.46
2022-12-31T13:00:45.775Z,12.45
2022-12-31T13:04:07.347Z,12.41
2022-12-31T13:06:44.793Z,12.38
2022-12-31T13:09:32.776Z,12.39
2022-12-31T13:12:17.303Z,12.37
2022-12-31T13:14:58.381Z,12.38
2022-12-31T13:18:01.224Z,12.40
2022-12-31T13:20:40.997Z,12.38
2022-12-31T13:23:21.315Z,12.37
2022-12-31T13:26:07.202Z,12.35
2022-12-31T13:28:42.953Z,12.30
2022-12-31T13:31:16.574Z,12.33
2022-12-31T13:33:54.105Z,12.30
2022-12-31T13:36:28.938Z,12.32
2022-12-31T13:39:06.833Z,12.32
2022-12-31T13:41:44.881Z,12.29
2022-12-31T13:44:26.369Z,12.28
2022-12-31T13:47:07.141Z,12.27
2022-12-31T13:49:45.818Z,12.24
2022-12-31T13:52:28.632Z,12.17
2022-12-31T13:55:09.526Z,12.15
2022-12-31T13:57:48.344Z,12.11
2022-12-31T14:00:24.626Z,12.05
2022-12-31T14:03:10.996Z,11.99
2022-12-31T14:05:50.055Z,11.96
2022-12-31T14:08:22.326Z,11.93
2022-12-31T14:11:06.449Z,11.89
2022-12-31T14:13:51.719Z,11.88
2022-12-31T14:16:33.981Z,11.87
2022-12-31T14:19:13.457Z,11.82
2022-12-31T14:21:53.105Z,11.82
2022-12-31T14:24:38.370Z,11.77
2022-12-31T14:27:16.389Z,11.70
2022-12-31T14:29:55.209Z,11.64
2022-12-31T14:32:46.727Z,11.60
2022-12-31T14:35:40.846Z,11.54
2022-12-31T14:38:26.626Z,11.48
2022-12-31T14:41:11.356Z,11.43
2022-12-31T14:43:52.379Z,11.40
2022-12-31T14:46:31.815Z,11.36
2022-12-31T14:49:16.339Z,11.29
2022-12-31T14:51:48.626Z,11.26
2022-12-31T14:54:35.537Z,11.20
2022-12-31T14:57:23.558Z,11.13
2022-12-31T14:59:58.316Z,11.06
2022-12-31T15:02:32.685Z,11.01
2022-12-31T15:05:19.134Z,10.96
2022-12-31T15:08:04.586Z,10.91
2022-12-31T15:10:49.380Z,10.83
2022-12-31T15:13:37.199Z,10.83
2022-12-31T15:16:34.267Z,10.76
2022-12-31T15:19:33.333Z,10.73
2022-12-31T15:22:17.034Z,10.68
2022-12-31T15:24:50.160Z,10.62
2022-12-31T15:27:36.364Z,10.59
2022-12-31T15:30:23.316Z,10.55
2022-12-31T15:32:58.645Z,10.51
2022-12-31T15:35:35.083Z,10.47
2022-12-31T15:38:33.698Z,10.45
2022-12-31T15:41:16.927Z,10.42
2022-12-31T15:43:53.764Z,10.40
2022-12-31T15:46:30.470Z,10.37
2022-12-31T15:49:15.098Z,10.37
2022-12-31T15:51:58.563Z,10.37
2022-12-31T15:54:39.348Z,10.34
2022-12-31T15:57:20.504Z,10.33
2022-12-31T15:59:58.805Z,10.31
2022-12-31T16:02:31.902Z,10.28
2022-12-31T16:05:04.428Z,10.27
2022-12-31T16:07:36.673Z,10.27
2022-12-31T16:10:10.638Z,10.24
2022-12-31T16:12:45.513Z,10.22
2022-12-31T16:15:24.459Z,10.19
2022-12-31T16:18:05.507Z,10.17
2022-12-31T16:20:44.837Z,10.15
2022-12-31T16:23:24.160Z,10.13
2022-12-31T16:25:59.702Z,10.09
2022-12-31T16:28:34.542Z,10.06
2022-12-31T16:31:13.686Z,10.04
2022-12-31T16:33:47.239Z,10.02
2022-12-31T16:36:23.429Z,10.00
2022-12-31T16:39:09.514Z,9.98
2022-12-31T16:41:46.099Z,9.94
2022-12-31T16:44:28.006Z,9.91
2022-12-31T16:47:03.223Z,9.88
2022-12-31T16:49:37.260Z,9.84
2022-12-31T16:52:21.899Z,9.81
2022-12-31T16:54:55.572Z,9.77
2022-12-31T16:57:30.449Z,9.75
2022-12-31T17:00:06.634Z,9.73
2022-12-31T17:02:43.951Z,9.71
2022-12-31T17:05:24.562Z,9.70
2022-12-31T17:07:57.418Z,9.68
2022-12-31T17:10:36.645Z,9.65
2022-12-31T17:13:28.305Z,9.62
2022-12-31T17:16:02.712Z,9.61
2022-12-31T17:18:39.829Z,9.59
2022-12-31T17:21:13.340Z,9.56
2022-12-31T17:23:51.941Z,9.57
2022-12-31T17:26:28.977Z,9.57
2022-12-31T17:29:05.240Z,9.57
2022-12-31T17:31:39.817Z,9.57
2022-12-31T17:34:30.561Z,9.56
2022-12-31T17:37:09.464Z,9.56
2022-12-31T17:39:50.769Z,9.57
2022-12-31T17:42:33.721Z,9.57
2022-12-31T17:45:09.576Z,9.56
2022-12-31T17:47:48.241Z,9.54
2022-12-31T17:50:25.783Z,9.52
2022-12-31T17:53:00.784Z,9.49
2022-12-31T17:55:33.819Z,9.47
2022-12-31T17:58:08.141Z,9.47
2022-12-31T18:00:40.428Z,9.47
2022-12-31T18:03:12.687Z,9.46
2022-12-31T18:05:44.844Z,9.45
2022-12-31T18:08:17.072Z,9.43
2022-12-31T18:10:49.876Z,9.40
2022-12-31T18:13:24.611Z,9.36
2022-12-31T18:15:57.122Z,9.32
2022-12-31T18:18:32.738Z,9.31
2022-12-31T18:21:08.810Z,9.30
2022-12-31T18:23:46.251Z,9.28
2022-12-31T18:26:20.608Z,9.27
2022-12-31T18:28:54.103Z,9.24
2022-12-31T18:31:28.767Z,9.22
2022-12-31T18:34:02.138Z,9.20
2022-12-31T18:36:34.406Z,9.18
2022-12-31T18:39:06.797Z,9.16
2022-12-31T18:41:45.710Z,9.12
2022-12-31T18:44:18.871Z,9.10
2022-12-31T18:46:51.089Z,9.08
2022-12-31T18:49:23.258Z,9.07
2022-12-31T18:51:57.155Z,9.06
2022-12-31T18:54:29.338Z,9.05
2022-12-31T18:57:01.646Z,9.03
2022-12-31T18:59:34.017Z,9.02
2022-12-31T19:02:07.523Z,9.00
2022-12-31T19:04:39.773Z,8.97
2022-12-31T19:07:12.002Z,8.93
2022-12-31T19:09:46.055Z,8.90
2022-12-31T19:12:19.705Z,8.94
2022-12-31T19:14:51.883Z,8.95
2022-12-31T19:17:24.081Z,8.94
2022-12-31T19:19:58.810Z,8.90
2022-12-31T19:22:31.002Z,8.87
2022-12-31T19:25:03.163Z,8.84
2022-12-31T19:27:35.325Z,8.82
2022-12-31T19:30:12.535Z,8.80
2022-12-31T19:32:44.736Z,8.76
2022-12-31T19:35:18.813Z,8.72
2022-12-31T19:37:52.908Z,8.66
2022-12-31T19:40:28.106Z,8.64
2022-12-31T19:43:00.303Z,8.63
2022-12-31T19:45:33.245Z,8.63
2022-12-31T19:48:05.540Z,8.62
2022-12-31T19:50:37.690Z,8.58
2022-12-31T19:53:12.808Z,8.55
2022-12-31T19:55:45.033Z,8.51
2022-12-31T19:58:21.314Z,8.48
2022-12-31T20:00:59.597Z,8.47
2022-12-31T20:03:34.594Z,8.44
2022-12-31T20:06:10.306Z,8.39
2022-12-31T20:08:44.725Z,8.36
2022-12-31T20:11:18.726Z,8.33
2022-12-31T20:13:53.805Z,8.30
2022-12-31T20:16:29.829Z,8.27
2022-12-31T20:19:00.507Z,8.24
2022-12-31T20:21:32.727Z,8.21
2022-12-31T20:24:05.082Z,8.17
2022-12-31T20:26:37.345Z,8.15
2022-12-31T20:29:09.565Z,8.13
2022-12-31T20:31:41.751Z,8.06
2022-12-31T20:34:14.035Z,8.03
2022-12-31T20:36:46.203Z,8.02
2022-12-31T20:39:18.513Z,7.99
2022-12-31T20:41:50.715Z,8.01
2022-12-31T20:44:23.110Z,8.00
2022-12-31T20:46:55.965Z,7.99
2022-12-31T20:50:00.972Z,7.96
2022-12-31T20:52:20.443Z,7.92
2022-12-31T20:54:53.250Z,7.92
2022-12-31T20:57:28.836Z,7.91
2022-12-31T21:00:06.831Z,7.91
2022-12-31T21:02:42.432Z,7.91
2022-12-31T21:05:15.804Z,7.91
2022-12-31T21:07:48.255Z,7.92
2022-12-31T21:10:20.674Z,7.93
2022-12-31T21:12:54.506Z,7.95
2022-12-31T21:15:26.814Z,7.96
2022-12-31T21:18:00.414Z,7.91
2022-12-31T21:20:32.650Z,7.95
2022-12-31T21:23:04.969Z,7.94
2022-12-31T21:25:37.501Z,7.92
2022-12-31T21:28:09.827Z,7.91
2022-12-31T21:30:42.994Z,7.90
2022-12-31T21:33:15.342Z,7.91
2022-12-31T21:35:53.874Z,7.91
2022-12-31T21:38:27.105Z,7.86
2022-12-31T21:41:04.875Z,7.88
2022-12-31T21:43:37.417Z,7.87
2022-12-31T21:46:11.032Z,7.87
2022-12-31T21:48:43.255Z,7.84
2022-12-31T21:51:17.245Z,7.82
2022-12-31T21:53:49.441Z,7.80
2022-12-31T21:56:22.679Z,7.79
2022-12-31T21:59:14.234Z,7.79
2022-12-31T22:02:04.063Z,7.79
2022-12-31T22:05:01.421Z,7.79
2022-12-31T22:07:28.688Z,7.77
2022-12-31T22:10:01.149Z,7.76
2022-12-31T22:12:33.403Z,7.75
2022-12-31T22:15:16.000Z,7.73
2022-12-31T22:17:48.595Z,7.77
2022-12-31T22:20:29.332Z,7.79
2022-12-31T22:23:01.911Z,7.79
2022-12-31T22:25:36.129Z,7.79
2022-12-31T22:28:37.456Z,7.79
2022-12-31T22:31:01.823Z,7.79
2022-12-31T22:33:34.099Z,7.79
2022-12-31T22:36:08.871Z,7.77
2022-12-31T22:38:41.122Z,7.77
2022-12-31T22:41:15.690Z,7.74
2022-12-31T22:43:51.243Z,7.72
2022-12-31T22:46:25.898Z,7.71
2022-12-31T22:49:01.102Z,7.68
2022-12-31T22:51:55.826Z,7.66
2022-12-31T22:54:26.193Z,7.63
2022-12-31T22:56:58.414Z,7.61
2022-12-31T22:59:30.655Z,7.58
2022-12-31T23:02:03.083Z,7.56
2022-12-31T23:04:35.574Z,7.52
2022-12-31T23:07:08.762Z,7.51
2022-12-31T23:09:58.400Z,7.49
2022-12-31T23:12:30.582Z,7.46
2022-12-31T23:15:20.131Z,7.43
2022-12-31T23:18:09.939Z,7.43
2022-12-31T23:20:59.752Z,7.42
2022-12-31T23:23:31.998Z,7.43
2022-12-31T23:26:04.785Z,7.42
2022-12-31T23:28:36.986Z,7.42
2022-12-31T23:31:10.121Z,7.41
2022-12-31T23:33:42.341Z,7.38
2022-12-31T23:36:15.019Z,7.38
2022-12-31T23:38:47.280Z,7.38
2022-12-31T23:41:21.821Z,7.34
2022-12-31T23:43:54.092Z,7.36
2022-12-31T23:46:26.535Z,7.34
2022-12-31T23:48:58.879Z,7.32
2022-12-31T23:51:31.064Z,7.31
2022-12-31T23:54:03.960Z,7.27
2022-12-31T23:56:36.367Z,7.26
2022-12-31T23:59:08.574Z,7.22
